createdAt,value
2018-06-02T00:02:15.956Z,32.93
2018-06-02T00:04:43.604Z,30.73
2018-06-02T00:07:11.144Z,30.90
2018-06-02T00:09:39.651Z,29.90
2018-06-02T00:12:07.331Z,30.40
2018-06-02T00:14:34.995Z,31.70
2018-06-02T00:17:02.557Z,30.43
2018-06-02T00:19:30.112Z,31.90
2018-06-02T00:21:57.692Z,28.70
2018-06-02T00:24:25.276Z,31.03
2018-06-02T00:26:52.955Z,33.23
2018-06-02T00:29:21.330Z,31.50
2018-06-02T00:31:49.739Z,28.77
2018-06-02T00:34:17.296Z,31.47
2018-06-02T00:36:44.827Z,28.50
2018-06-02T00:39:13.165Z,32.07
2018-06-02T00:41:40.703Z,29.50
2018-06-02T00:44:08.230Z,30.60
2018-06-02T00:46:35.803Z,31.23
2018-06-02T00:49:03.365Z,28.90
2018-06-02T00:51:30.914Z,28.90
2018-06-02T00:53:58.409Z,28.63
2018-06-02T00:56:25.975Z,28.63
2018-06-02T00:58:55.028Z,30.60
2018-06-02T01:01:22.631Z,28.37
2018-06-02T01:03:50.947Z,28.70
2018-06-02T01:06:19.273Z,27.00
2018-06-02T01:08:46.818Z,28.00
2018-06-02T01:11:14.379Z,28.50
2018-06-02T01:13:41.919Z,29.87
2018-06-02T01:16:09.528Z,26.80
2018-06-02T01:18:37.231Z,24.87
2018-06-02T01:21:04.794Z,25.47
2018-06-02T01:23:32.350Z,26.67
2018-06-02T01:26:00.019Z,25.67
2018-06-02T01:28:27.618Z,24.43
2018-06-02T01:30:56.013Z,23.03
2018-06-02T01:33:23.564Z,25.57
2018-06-02T01:35:51.163Z,23.90
2018-06-02T01:38:18.782Z,24.77
2018-06-02T01:40:46.423Z,24.67
2018-06-02T01:43:14.076Z,27.43
2018-06-02T01:45:41.630Z,26.10
2018-06-02T01:48:09.198Z,25.67
2018-06-02T01:50:36.735Z,25.33
2018-06-02T01:53:04.324Z,25.70
2018-06-02T01:55:32.016Z,27.80
2018-06-02T01:57:59.544Z,25.00
2018-06-02T02:00:27.146Z,25.60
2018-06-02T02:02:55.474Z,27.47
2018-06-02T02:05:23.019Z,24.90
2018-06-02T02:07:50.577Z,27.03
2018-06-02T02:10:18.143Z,24.30
2018-06-02T02:12:45.762Z,23.50
2018-06-02T02:15:14.083Z,23.90
2018-06-02T02:17:41.647Z,27.20
2018-06-02T02:20:09.216Z,26.10
2018-06-02T02:22:37.522Z,25.43
2018-06-02T02:25:05.920Z,27.60
2018-06-02T02:27:33.498Z,24.37
2018-06-02T02:30:01.063Z,26.40
2018-06-02T02:32:28.643Z,24.90
2018-06-02T02:34:57.808Z,20.90
2018-06-02T02:37:25.507Z,23.07
2018-06-02T02:39:53.048Z,21.57
2018-06-02T02:42:20.618Z,22.80
2018-06-02T02:44:48.171Z,20.27
2018-06-02T02:47:15.735Z,19.80
2018-06-02T02:49:44.079Z,20.50
2018-06-02T02:52:11.624Z,22.93
2018-06-02T02:54:39.196Z,23.87
2018-06-02T02:57:06.752Z,23.73
2018-06-02T02:59:34.317Z,22.03
2018-06-02T03:02:01.941Z,23.40
2018-06-02T03:04:30.298Z,22.67
2018-06-02T03:06:57.887Z,22.70
2018-06-02T03:09:26.199Z,22.23
2018-06-02T03:11:54.763Z,23.97
2018-06-02T03:14:22.324Z,22.80
2018-06-02T03:16:49.878Z,24.30
2018-06-02T03:19:17.491Z,22.13
2018-06-02T03:21:45.027Z,22.40
2018-06-02T03:24:12.595Z,21.83
2018-06-02T03:26:40.134Z,21.17
2018-06-02T03:29:07.822Z,21.20
2018-06-02T03:31:35.392Z,23.00
2018-06-02T03:34:02.947Z,24.57
2018-06-02T03:36:30.495Z,21.63
2018-06-02T03:38:59.567Z,20.80
2018-06-02T03:41:27.111Z,23.70
2018-06-02T03:43:54.700Z,22.97
2018-06-02T03:46:22.257Z,20.13
2018-06-02T03:48:49.916Z,24.07
2018-06-02T03:51:17.476Z,22.77
2018-06-02T03:53:45.102Z,20.90
2018-06-02T03:56:12.766Z,18.43
2018-06-02T03:58:40.339Z,24.53
2018-06-02T04:01:07.879Z,18.67
2018-06-02T04:03:35.549Z,19.33
2018-06-02T04:06:03.119Z,20.73
2018-06-02T04:08:30.683Z,20.10
2018-06-02T04:10:58.218Z,18.93
2018-06-02T04:13:25.789Z,21.60
2018-06-02T04:15:53.383Z,22.73
2018-06-02T04:18:20.863Z,20.90
2018-06-02T04:20:49.195Z,20.83
2018-06-02T04:23:16.745Z,21.20
2018-06-02T04:25:44.299Z,22.53
2018-06-02T04:28:11.839Z,20.00
2018-06-02T04:30:39.452Z,22.83
2018-06-02T04:33:06.987Z,20.07
2018-06-02T04:35:34.607Z,25.77
2018-06-02T04:38:02.147Z,24.90
2018-06-02T04:40:30.479Z,26.10
2018-06-02T04:42:58.090Z,24.93
2018-06-02T04:45:26.387Z,22.60
2018-06-02T04:47:54.119Z,23.60
2018-06-02T04:50:21.667Z,27.87
2018-06-02T04:52:49.212Z,24.10
2018-06-02T04:55:16.908Z,25.80
2018-06-02T04:57:45.362Z,23.67
2018-06-02T05:00:12.906Z,29.95
2018-06-02T05:02:40.475Z,27.47
2018-06-02T05:05:08.806Z,25.20
2018-06-02T05:07:36.584Z,24.77
2018-06-02T05:10:04.166Z,24.87
2018-06-02T05:12:31.743Z,23.87
2018-06-02T05:14:59.440Z,26.17
2018-06-02T05:17:26.983Z,26.07
2018-06-02T05:19:55.315Z,24.13
2018-06-02T05:22:22.926Z,25.13
2018-06-02T05:24:51.244Z,24.63
2018-06-02T05:27:18.889Z,25.10
2018-06-02T05:29:46.423Z,24.10
2018-06-02T05:32:14.763Z,25.27
2018-06-02T05:34:43.096Z,24.43
2018-06-02T05:37:10.656Z,26.00
2018-06-02T05:39:38.284Z,24.37
2018-06-02T05:42:05.858Z,26.87
2018-06-02T05:44:33.452Z,25.17
2018-06-02T05:47:00.986Z,24.00
2018-06-02T05:49:29.683Z,22.80
2018-06-02T05:51:57.229Z,27.58
2018-06-02T05:54:24.802Z,23.60
2018-06-02T05:56:52.376Z,24.27
2018-06-02T05:59:19.918Z,22.90
2018-06-02T06:01:47.580Z,21.83
2018-06-02T06:04:15.144Z,19.43
2018-06-02T06:06:42.732Z,21.70
2018-06-02T06:09:10.276Z,20.70
2018-06-02T06:11:37.979Z,22.63
2018-06-02T06:14:06.326Z,20.80
2018-06-02T06:16:34.040Z,21.90
2018-06-02T06:19:01.651Z,19.67
2018-06-02T06:21:29.266Z,21.80
2018-06-02T06:23:56.842Z,20.27
2018-06-02T06:26:24.431Z,22.40
2018-06-02T06:28:52.030Z,21.20
2018-06-02T06:31:19.662Z,19.10
2018-06-02T06:33:48.199Z,19.17
2018-06-02T06:36:15.764Z,22.00
2018-06-02T06:38:43.351Z,19.80
2018-06-02T06:41:11.067Z,19.10
2018-06-02T06:43:39.636Z,18.50
2018-06-02T06:46:07.939Z,17.57
2018-06-02T06:48:35.492Z,19.37
2018-06-02T06:51:03.037Z,20.20
2018-06-02T06:53:30.635Z,20.03
2018-06-02T06:55:58.168Z,18.47
2018-06-02T06:58:25.728Z,20.83
2018-06-02T07:00:53.367Z,17.73
2018-06-02T07:03:20.957Z,19.47
2018-06-02T07:05:48.532Z,18.77
2018-06-02T07:08:16.070Z,18.40
2018-06-02T07:10:43.631Z,17.40
2018-06-02T07:13:11.187Z,17.00
2018-06-02T07:15:38.810Z,17.40
2018-06-02T07:18:06.444Z,15.80
2018-06-02T07:20:34.006Z,16.50
2018-06-02T07:23:01.571Z,17.93
2018-06-02T07:25:30.635Z,15.37
2018-06-02T07:27:58.189Z,16.87
2018-06-02T07:30:25.772Z,17.23
2018-06-02T07:32:54.085Z,19.20
2018-06-02T07:35:22.386Z,17.97
2018-06-02T07:37:50.090Z,17.20
2018-06-02T07:40:17.747Z,15.63
2018-06-02T07:42:45.327Z,13.77
2018-06-02T07:45:13.648Z,16.27
2018-06-02T07:47:41.347Z,17.20
2018-06-02T07:50:09.105Z,18.43
2018-06-02T07:52:36.583Z,19.13
2018-06-02T07:55:04.132Z,16.10
2018-06-02T07:57:31.798Z,16.67
2018-06-02T07:59:59.352Z,18.13
2018-06-02T08:02:26.948Z,16.70
2018-06-02T08:04:55.256Z,21.37
2018-06-02T08:07:22.792Z,20.50
2018-06-02T08:09:50.357Z,20.37
2018-06-02T08:12:17.909Z,17.47
2018-06-02T08:14:45.474Z,18.70
2018-06-02T08:17:13.018Z,16.40
2018-06-02T08:19:41.375Z,17.37
2018-06-02T08:22:09.696Z,15.87
2018-06-02T08:24:37.240Z,18.93
2018-06-02T08:27:04.811Z,19.17
2018-06-02T08:29:32.347Z,15.67
2018-06-02T08:31:59.908Z,17.83
2018-06-02T08:34:27.636Z,15.43
2018-06-02T08:36:55.959Z,18.57
2018-06-02T08:39:23.499Z,18.43
2018-06-02T08:41:51.081Z,18.90
2018-06-02T08:44:18.652Z,17.20
2018-06-02T08:46:46.212Z,16.63
2018-06-02T08:49:13.856Z,15.20
2018-06-02T08:51:41.419Z,17.55
2018-06-02T08:54:08.979Z,15.33
2018-06-02T08:56:36.543Z,15.23
2018-06-02T08:59:04.129Z,14.70
2018-06-02T09:01:31.663Z,15.50
2018-06-02T09:03:59.244Z,17.87
2018-06-02T09:06:26.811Z,18.30
2018-06-02T09:08:54.372Z,16.47
2018-06-02T09:11:21.960Z,15.73
2018-06-02T09:13:50.445Z,15.47
2018-06-02T09:16:18.020Z,14.90
2018-06-02T09:18:45.603Z,15.40
2018-06-02T09:21:13.172Z,16.80
2018-06-02T09:23:40.704Z,17.47
2018-06-02T09:26:08.362Z,18.30
2018-06-02T09:28:36.023Z,17.17
2018-06-02T09:31:03.579Z,19.67
2018-06-02T09:33:31.130Z,21.10
2018-06-02T09:35:58.733Z,21.07
2018-06-02T09:38:26.379Z,21.20
2018-06-02T09:40:53.954Z,21.20
2018-06-02T09:43:21.546Z,19.50
2018-06-02T09:45:49.896Z,20.17
2018-06-02T09:48:17.610Z,19.60
2018-06-02T09:50:45.266Z,20.80
2018-06-02T09:53:12.971Z,20.30
2018-06-02T09:55:40.530Z,24.13
2018-06-02T09:58:08.100Z,19.80
2018-06-02T10:00:36.419Z,18.60
2018-06-02T10:03:04.075Z,19.50
2018-06-02T10:05:31.698Z,22.17
2018-06-02T10:07:59.271Z,20.92
2018-06-02T10:10:27.639Z,20.60
2018-06-02T10:12:55.185Z,19.13
2018-06-02T10:15:22.757Z,20.30
2018-06-02T10:17:50.467Z,19.03
2018-06-02T10:20:18.031Z,20.07
2018-06-02T10:22:45.747Z,17.90
2018-06-02T10:25:13.378Z,21.97
2018-06-02T10:27:41.168Z,20.33
2018-06-02T10:30:08.716Z,22.87
2018-06-02T10:32:36.313Z,21.70
2018-06-02T10:35:04.687Z,23.20
2018-06-02T10:37:33.038Z,26.17
2018-06-02T10:40:00.599Z,22.63
2018-06-02T10:42:28.116Z,24.70
2018-06-02T10:44:55.703Z,22.80
2018-06-02T10:47:23.263Z,22.77
2018-06-02T10:49:52.323Z,21.27
2018-06-02T10:52:19.908Z,23.77
2018-06-02T10:54:47.466Z,23.10
2018-06-02T10:57:15.040Z,22.20
2018-06-02T10:59:42.651Z,22.27
2018-06-02T11:02:10.279Z,21.33
2018-06-02T11:04:38.667Z,21.00
2018-06-02T11:07:07.000Z,22.70
2018-06-02T11:09:34.559Z,23.23
2018-06-02T11:12:02.303Z,21.97
2018-06-02T11:14:29.880Z,25.83
2018-06-02T11:16:57.420Z,23.33
2018-06-02T11:19:25.021Z,23.80
2018-06-02T11:21:52.572Z,22.30
2018-06-02T11:24:20.120Z,24.97
2018-06-02T11:26:47.690Z,22.20
2018-06-02T11:29:15.256Z,19.17
2018-06-02T11:31:42.903Z,18.60
2018-06-02T11:34:10.453Z,18.20
2018-06-02T11:36:38.045Z,18.00
2018-06-02T11:39:06.327Z,18.43
2018-06-02T11:41:34.663Z,14.70
2018-06-02T11:44:02.261Z,17.80
2018-06-02T11:46:29.781Z,16.07
2018-06-02T11:48:57.350Z,19.23
2018-06-02T11:51:25.802Z,16.77
2018-06-02T11:53:53.367Z,16.40
2018-06-02T11:56:21.027Z,17.10
2018-06-02T11:58:48.593Z,16.23
2018-06-02T12:01:16.168Z,17.60
2018-06-02T12:03:43.775Z,16.10
2018-06-02T12:06:11.364Z,16.90
2018-06-02T12:08:39.027Z,16.73
2018-06-02T12:11:06.651Z,16.20
2018-06-02T12:13:34.335Z,17.63
2018-06-02T12:16:02.023Z,18.23
2018-06-02T12:18:29.572Z,18.03
2018-06-02T12:20:57.180Z,19.73
2018-06-02T12:23:25.530Z,18.50
2018-06-02T12:25:53.250Z,17.10
2018-06-02T12:28:20.810Z,15.97
2018-06-02T12:30:48.364Z,19.10
2018-06-02T12:33:16.068Z,18.10
2018-06-02T12:35:44.232Z,18.10
2018-06-02T12:38:11.804Z,16.67
2018-06-02T12:40:39.363Z,18.00
2018-06-02T12:43:06.978Z,18.03
2018-06-02T12:45:34.550Z,21.12
2018-06-02T12:48:02.112Z,19.33
2018-06-02T12:50:29.699Z,17.03
2018-06-02T12:52:57.248Z,16.60
2018-06-02T12:55:24.818Z,19.10
2018-06-02T12:57:52.481Z,17.23
2018-06-02T13:00:20.034Z,18.90
2018-06-02T13:02:47.593Z,18.50
2018-06-02T13:05:15.140Z,17.40
2018-06-02T13:07:42.820Z,16.90
2018-06-02T13:10:10.419Z,16.50
2018-06-02T13:12:37.995Z,17.50
2018-06-02T13:15:05.654Z,14.40
2018-06-02T13:17:33.251Z,7.73
2018-06-02T13:20:00.783Z,6.60
2018-06-02T13:22:28.326Z,7.13
2018-06-02T13:24:55.855Z,7.40
2018-06-02T13:27:24.183Z,7.90
2018-06-02T13:29:51.761Z,7.30
2018-06-02T13:32:20.866Z,7.87
2018-06-02T13:34:48.563Z,7.70
2018-06-02T13:37:16.226Z,7.67
2018-06-02T13:39:43.783Z,7.17
2018-06-02T13:42:11.343Z,6.67
2018-06-02T13:44:39.054Z,5.90
2018-06-02T13:47:06.620Z,4.73
2018-06-02T13:49:34.190Z,5.10
2018-06-02T13:52:02.684Z,6.60
2018-06-02T13:54:30.991Z,5.67
2018-06-02T13:56:58.585Z,7.73
2018-06-02T13:59:26.161Z,7.77
2018-06-02T14:01:53.739Z,6.40
2018-06-02T14:04:22.087Z,5.50
2018-06-02T14:06:50.420Z,7.23
2018-06-02T14:09:17.985Z,8.27
2018-06-02T14:11:45.619Z,7.07
2018-06-02T14:14:14.052Z,8.83
2018-06-02T14:16:41.624Z,7.20
2018-06-02T14:19:09.188Z,8.10
2018-06-02T14:21:36.738Z,8.43
2018-06-02T14:24:04.447Z,7.17
2018-06-02T14:26:32.807Z,6.67
2018-06-02T14:29:01.140Z,7.20
2018-06-02T14:31:28.704Z,6.20
2018-06-02T14:33:56.252Z,6.97
2018-06-02T14:36:24.020Z,5.93
2018-06-02T14:38:51.576Z,5.53
2018-06-02T14:41:19.326Z,7.30
2018-06-02T14:43:46.951Z,6.80
2018-06-02T14:46:15.279Z,5.90
2018-06-02T14:48:42.863Z,7.20
2018-06-02T14:51:10.418Z,5.90
2018-06-02T14:53:37.978Z,5.63
2018-06-02T14:56:05.561Z,6.70
2018-06-02T14:58:33.928Z,5.43
2018-06-02T15:01:01.483Z,4.53
2018-06-02T15:03:29.055Z,4.70
2018-06-02T15:05:57.435Z,3.60
2018-06-02T15:08:25.808Z,4.60
2018-06-02T15:10:54.141Z,4.70
2018-06-02T15:13:21.725Z,4.17
2018-06-02T15:15:49.308Z,4.70
2018-06-02T15:18:17.615Z,5.20
2018-06-02T15:20:45.180Z,5.70
2018-06-02T15:23:12.808Z,5.57
2018-06-02T15:25:40.436Z,5.40
2018-06-02T15:28:08.043Z,5.70
2018-06-02T15:30:35.593Z,4.90
2018-06-02T15:33:03.276Z,5.20
2018-06-02T15:35:30.827Z,4.60
2018-06-02T15:37:58.455Z,6.43
2018-06-02T15:40:26.827Z,5.70
2018-06-02T15:42:54.388Z,5.30
2018-06-02T15:45:22.738Z,5.37
2018-06-02T15:47:50.456Z,6.60
2018-06-02T15:50:18.053Z,6.90
2018-06-02T15:52:45.648Z,7.20
2018-06-02T15:55:14.016Z,7.80
2018-06-02T15:57:41.586Z,7.50
2018-06-02T16:00:09.892Z,8.57
2018-06-02T16:02:37.498Z,9.10
2018-06-02T16:05:05.294Z,8.77
2018-06-02T16:07:33.042Z,7.70
2018-06-02T16:10:01.408Z,9.20
2018-06-02T16:12:30.043Z,9.97
2018-06-02T16:14:57.594Z,9.23
2018-06-02T16:17:25.163Z,9.00
2018-06-02T16:19:52.791Z,9.90
2018-06-02T16:22:21.140Z,8.37
2018-06-02T16:24:48.717Z,10.97
2018-06-02T16:27:17.044Z,10.37
2018-06-02T16:29:44.623Z,9.03
2018-06-02T16:32:12.193Z,9.50
2018-06-02T16:34:39.772Z,9.80
2018-06-02T16:37:08.156Z,11.20
2018-06-02T16:39:36.610Z,11.70
2018-06-02T16:42:04.166Z,9.87
2018-06-02T16:44:31.772Z,9.50
2018-06-02T16:47:00.116Z,10.07
2018-06-02T16:49:27.753Z,9.97
2018-06-02T16:51:55.418Z,11.27
2018-06-02T16:54:23.072Z,10.03
2018-06-02T16:56:50.659Z,12.23
2018-06-02T16:59:18.229Z,11.97
2018-06-02T17:01:46.568Z,12.43
2018-06-02T17:04:14.296Z,10.60
2018-06-02T17:06:41.888Z,11.57
2018-06-02T17:09:09.456Z,12.23
2018-06-02T17:11:37.180Z,11.63
2018-06-02T17:14:04.788Z,11.97
2018-06-02T17:16:32.322Z,12.03
2018-06-02T17:18:59.979Z,12.17
2018-06-02T17:21:27.529Z,12.33
2018-06-02T17:23:55.231Z,12.83
2018-06-02T17:26:22.850Z,13.30
2018-06-02T17:28:50.404Z,13.80
2018-06-02T17:31:18.117Z,14.70
2018-06-02T17:33:45.627Z,16.13
2018-06-02T17:36:13.212Z,16.27
2018-06-02T17:38:40.777Z,14.37
2018-06-02T17:41:08.352Z,16.60
2018-06-02T17:43:35.895Z,16.10
2018-06-02T17:46:03.471Z,18.20
2018-06-02T17:48:31.024Z,15.60
2018-06-02T17:50:58.585Z,12.40
2018-06-02T17:53:26.162Z,14.10
2018-06-02T17:55:54.484Z,15.90
2018-06-02T17:58:22.048Z,13.33
2018-06-02T18:00:49.614Z,14.83
2018-06-02T18:03:17.366Z,16.33
2018-06-02T18:05:45.036Z,15.10
2018-06-02T18:08:12.608Z,13.97
2018-06-02T18:10:40.174Z,14.13
2018-06-02T18:13:07.724Z,15.80
2018-06-02T18:15:35.444Z,15.00
2018-06-02T18:18:03.142Z,19.20
2018-06-02T18:20:30.720Z,18.33
2018-06-02T18:22:58.371Z,15.37
2018-06-02T18:25:25.987Z,15.33
2018-06-02T18:27:53.552Z,15.37
2018-06-02T18:30:21.185Z,16.97
2018-06-02T18:32:49.548Z,15.77
2018-06-02T18:35:17.114Z,14.67
2018-06-02T18:37:45.458Z,14.30
2018-06-02T18:40:13.018Z,15.50
2018-06-02T18:42:40.578Z,17.07
2018-06-02T18:45:08.139Z,14.47
2018-06-02T18:47:35.723Z,13.50
2018-06-02T18:50:04.109Z,14.77
2018-06-02T18:52:32.487Z,13.10
2018-06-02T18:55:00.809Z,14.27
2018-06-02T18:57:28.407Z,13.93
2018-06-02T18:59:56.725Z,13.83
2018-06-02T19:02:24.476Z,14.20
2018-06-02T19:04:52.139Z,13.30
2018-06-02T19:07:19.801Z,13.30
2018-06-02T19:09:47.302Z,14.50
2018-06-02T19:12:14.944Z,12.00
2018-06-02T19:14:42.511Z,15.10
2018-06-02T19:17:10.124Z,14.23
2018-06-02T19:19:38.514Z,13.90
2018-06-02T19:22:06.860Z,15.03
2018-06-02T19:24:34.489Z,13.60
2018-06-02T19:27:02.062Z,12.77
2018-06-02T19:29:29.604Z,14.90
2018-06-02T19:31:57.276Z,12.37
2018-06-02T19:34:24.870Z,13.97
2018-06-02T19:36:53.191Z,13.93
2018-06-02T19:39:20.756Z,13.33
2018-06-02T19:41:48.377Z,14.90
2018-06-02T19:44:16.701Z,15.90
2018-06-02T19:46:44.295Z,13.30
2018-06-02T19:49:11.864Z,15.43
2018-06-02T19:51:40.199Z,15.10
2018-06-02T19:54:07.850Z,13.90
2018-06-02T19:56:35.423Z,15.27
2018-06-02T19:59:03.185Z,15.43
2018-06-02T20:01:30.797Z,15.10
2018-06-02T20:03:58.429Z,15.10
2018-06-02T20:06:25.992Z,20.10
2018-06-02T20:08:54.434Z,19.60
2018-06-02T20:11:22.030Z,17.57
2018-06-02T20:13:49.629Z,17.20
2018-06-02T20:16:17.200Z,18.20
2018-06-02T20:18:44.774Z,17.00
2018-06-02T20:21:12.355Z,16.63
2018-06-02T20:23:39.989Z,16.70
2018-06-02T20:26:07.586Z,16.30
2018-06-02T20:28:35.172Z,15.60
2018-06-02T20:31:02.821Z,18.23
2018-06-02T20:33:31.258Z,18.70
2018-06-02T20:35:58.864Z,16.70
2018-06-02T20:38:27.336Z,16.23
2018-06-02T20:40:55.735Z,15.57
2018-06-02T20:43:23.279Z,18.70
2018-06-02T20:45:50.871Z,13.87
2018-06-02T20:48:18.471Z,13.73
2018-06-02T20:50:46.063Z,16.00
2018-06-02T20:53:14.559Z,12.90
2018-06-02T20:55:42.180Z,14.63
2018-06-02T20:58:09.747Z,17.70
2018-06-02T21:00:38.099Z,17.70
2018-06-02T21:03:05.788Z,14.23
2018-06-02T21:05:33.358Z,13.63
2018-06-02T21:08:01.690Z,12.60
2018-06-02T21:10:29.279Z,12.70
2018-06-02T21:12:57.648Z,11.77
2018-06-02T21:15:25.216Z,11.13
2018-06-02T21:17:52.856Z,13.80
2018-06-02T21:20:20.436Z,13.40
2018-06-02T21:22:48.011Z,12.40
2018-06-02T21:25:16.340Z,11.60
2018-06-02T21:27:43.911Z,12.37
2018-06-02T21:30:11.473Z,11.20
2018-06-02T21:32:39.117Z,12.50
2018-06-02T21:35:06.687Z,11.13
2018-06-02T21:37:34.269Z,10.80
2018-06-02T21:40:02.611Z,11.80
2018-06-02T21:42:30.952Z,12.20
2018-06-02T21:44:58.544Z,12.07
2018-06-02T21:47:26.083Z,11.40
2018-06-02T21:49:53.642Z,12.73
2018-06-02T21:52:21.309Z,11.90
2018-06-02T21:54:48.905Z,12.93
2018-06-02T21:57:16.459Z,11.30
2018-06-02T21:59:44.016Z,11.33
2018-06-02T22:02:11.590Z,12.43
2018-06-02T22:04:39.180Z,12.47
2018-06-02T22:07:06.761Z,12.53
2018-06-02T22:09:34.299Z,11.80
2018-06-02T22:12:01.871Z,12.63
2018-06-02T22:14:30.312Z,13.90
2018-06-02T22:16:58.826Z,12.67
2018-06-02T22:19:26.405Z,11.90
2018-06-02T22:21:54.009Z,11.40
2018-06-02T22:24:21.598Z,11.43
2018-06-02T22:26:49.224Z,12.20
2018-06-02T22:29:16.784Z,12.70
2018-06-02T22:31:44.358Z,11.80
2018-06-02T22:34:11.931Z,12.43
2018-06-02T22:36:39.503Z,10.90
2018-06-02T22:39:08.004Z,13.17
2018-06-02T22:41:35.589Z,12.57
2018-06-02T22:44:03.911Z,13.00
2018-06-02T22:46:31.479Z,10.33
2018-06-02T22:48:59.079Z,10.17
2018-06-02T22:51:38.421Z,12.60
2018-06-02T22:54:06.013Z,11.77
2018-06-02T22:56:33.539Z,13.33
2018-06-02T22:59:01.096Z,13.30
2018-06-02T23:01:28.636Z,12.33
2018-06-02T23:03:56.327Z,12.87
2018-06-02T23:06:23.870Z,13.27
2018-06-02T23:08:51.562Z,12.53
2018-06-02T23:11:19.158Z,13.40
2018-06-02T23:13:46.727Z,13.50
2018-06-02T23:16:14.290Z,14.00
2018-06-02T23:18:42.020Z,13.33
2018-06-02T23:21:09.588Z,14.40
2018-06-02T23:23:37.143Z,17.03
2018-06-02T23:26:04.671Z,14.77
2018-06-02T23:28:33.009Z,15.50
2018-06-02T23:31:00.639Z,17.90
2018-06-02T23:33:28.218Z,14.73
2018-06-02T23:35:55.831Z,18.90
2018-06-02T23:38:23.411Z,16.90
2018-06-02T23:40:50.964Z,15.20
2018-06-02T23:43:18.563Z,17.97
2018-06-02T23:45:46.112Z,17.43
2018-06-02T23:48:13.652Z,15.53
2018-06-02T23:50:41.227Z,14.50
2018-06-02T23:53:08.791Z,16.93
2018-06-02T23:55:36.375Z,17.17
2018-06-02T23:58:03.955Z,17.10
